createdAt,value
2022-10-10T00:01:37.408Z,74.27
2022-10-10T00:04:07.054Z,74.28
2022-10-10T00:06:36.016Z,74.50
2022-10-10T00:09:05.821Z,74.56
2022-10-10T00:11:34.490Z,74.74
2022-10-10T00:14:04.688Z,74.77
2022-10-10T00:16:33.456Z,74.81
2022-10-10T00:19:01.985Z,74.66
2022-10-10T00:21:30.959Z,74.65
2022-10-10T00:24:00.695Z,74.95
2022-10-10T00:26:29.764Z,75.28
2022-10-10T00:28:58.472Z,75.22
2022-10-10T00:31:28.488Z,75.50
2022-10-10T00:33:56.918Z,75.40
2022-10-10T00:36:25.243Z,74.85
2022-10-10T00:38:53.726Z,75.07
2022-10-10T00:41:22.364Z,75.00
2022-10-10T00:44:06.370Z,74.59
2022-10-10T00:46:36.608Z,74.69
2022-10-10T00:49:08.386Z,74.55
2022-10-10T00:51:37.105Z,74.60
2022-10-10T00:54:10.529Z,74.77
2022-10-10T00:56:44.723Z,74.58
2022-10-10T00:59:13.531Z,74.39
2022-10-10T01:01:43.938Z,74.68
2022-10-10T01:04:35.409Z,74.72
2022-10-10T01:07:08.708Z,74.85
2022-10-10T01:09:39.607Z,75.68
2022-10-10T01:12:19.878Z,75.75
2022-10-10T01:14:59.780Z,75.93
2022-10-10T01:17:35.774Z,75.81
2022-10-10T01:20:47.704Z,75.67
2022-10-10T01:23:47.869Z,75.79
2022-10-10T01:27:09.943Z,75.53
2022-10-10T01:29:44.819Z,75.61
2022-10-10T01:32:18.111Z,75.82
2022-10-10T01:34:57.149Z,75.86
2022-10-10T01:37:38.832Z,75.83
2022-10-10T01:40:15.641Z,76.17
2022-10-10T01:42:50.851Z,76.13
2022-10-10T01:45:21.270Z,76.40
2022-10-10T01:47:51.126Z,76.45
2022-10-10T01:50:23.611Z,76.16
2022-10-10T01:53:05.108Z,76.57
2022-10-10T01:55:52.429Z,76.37
2022-10-10T01:58:46.750Z,76.29
2022-10-10T02:01:23.525Z,76.31
2022-10-10T02:04:00.603Z,75.99
2022-10-10T02:06:34.738Z,75.81
2022-10-10T02:09:08.715Z,75.78
2022-10-10T02:11:40.387Z,76.04
2022-10-10T02:14:15.940Z,75.86
2022-10-10T02:16:48.839Z,75.57
2022-10-10T02:19:21.076Z,75.77
2022-10-10T02:21:52.503Z,75.93
2022-10-10T02:24:22.952Z,75.95
2022-10-10T02:27:02.621Z,76.12
2022-10-10T02:29:36.216Z,76.31
2022-10-10T02:32:11.272Z,76.50
2022-10-10T02:34:44.584Z,76.59
2022-10-10T02:37:16.429Z,76.53
2022-10-10T02:39:50.410Z,76.72
2022-10-10T02:42:22.818Z,76.74
2022-10-10T02:44:51.687Z,76.67
2022-10-10T02:47:21.262Z,76.71
2022-10-10T02:49:49.778Z,76.79
2022-10-10T02:52:18.355Z,77.16
2022-10-10T02:54:46.637Z,76.95
2022-10-10T02:57:14.924Z,76.81
2022-10-10T02:59:43.453Z,77.34
2022-10-10T03:02:11.678Z,77.04
2022-10-10T03:04:42.109Z,77.30
2022-10-10T03:07:10.505Z,76.98
2022-10-10T03:09:38.742Z,77.14
2022-10-10T03:12:07.008Z,76.91
2022-10-10T03:14:35.501Z,77.12
2022-10-10T03:17:03.711Z,77.03
2022-10-10T03:19:31.936Z,77.26
2022-10-10T03:22:01.587Z,77.27
2022-10-10T03:24:30.123Z,77.13
2022-10-10T03:26:58.355Z,77.09
2022-10-10T03:29:26.641Z,77.46
2022-10-10T03:31:54.799Z,76.90
2022-10-10T03:34:23.075Z,77.21
2022-10-10T03:36:51.291Z,76.97
2022-10-10T03:39:20.967Z,77.24
2022-10-10T03:41:50.302Z,77.00
2022-10-10T03:44:19.106Z,77.87
2022-10-10T03:46:47.345Z,78.38
2022-10-10T03:49:15.677Z,78.45
2022-10-10T03:51:43.908Z,78.74
2022-10-10T03:54:12.105Z,78.68
2022-10-10T03:56:41.715Z,78.52
2022-10-10T03:59:10.053Z,78.50
2022-10-10T04:01:38.651Z,78.87
2022-10-10T04:04:06.904Z,79.13
2022-10-10T04:06:35.104Z,79.55
2022-10-10T04:09:04.357Z,79.30
2022-10-10T04:11:32.580Z,79.53
2022-10-10T04:14:02.114Z,79.61
2022-10-10T04:16:30.369Z,79.98
2022-10-10T04:18:58.576Z,80.17
2022-10-10T04:21:26.837Z,80.14
2022-10-10T04:23:55.003Z,80.08
2022-10-10T04:26:23.248Z,80.31
2022-10-10T04:28:51.599Z,80.38
2022-10-10T04:31:21.441Z,80.41
2022-10-10T04:33:49.746Z,81.03
2022-10-10T04:36:17.945Z,81.19
2022-10-10T04:38:46.323Z,81.41
2022-10-10T04:41:14.563Z,81.69
2022-10-10T04:43:42.793Z,82.04
2022-10-10T04:46:11.030Z,82.53
2022-10-10T04:48:40.663Z,83.09
2022-10-10T04:51:08.902Z,83.07
2022-10-10T04:53:37.328Z,83.07
2022-10-10T04:56:05.826Z,82.82
2022-10-10T04:58:34.181Z,82.56
2022-10-10T05:01:02.462Z,82.58
2022-10-10T05:03:31.161Z,82.79
2022-10-10T05:06:00.714Z,82.79
2022-10-10T05:08:28.945Z,83.12
2022-10-10T05:10:57.218Z,82.91
2022-10-10T05:13:25.516Z,82.84
2022-10-10T05:15:54.091Z,82.95
2022-10-10T05:18:23.030Z,82.81
2022-10-10T05:20:51.227Z,82.87
2022-10-10T05:23:20.783Z,82.61
2022-10-10T05:25:51.291Z,82.94
2022-10-10T05:28:19.723Z,83.23
2022-10-10T05:30:47.967Z,82.98
2022-10-10T05:33:16.218Z,82.96
2022-10-10T05:35:44.395Z,82.94
2022-10-10T05:38:12.697Z,82.69
2022-10-10T05:40:43.110Z,82.49
2022-10-10T05:43:11.791Z,82.21
2022-10-10T05:45:39.999Z,81.81
2022-10-10T05:48:08.196Z,81.81
2022-10-10T05:50:47.264Z,81.37
2022-10-10T05:53:15.525Z,81.17
2022-10-10T05:55:45.451Z,81.11
2022-10-10T05:58:14.412Z,80.74
2022-10-10T06:00:44.333Z,80.47
2022-10-10T06:03:14.788Z,80.30
2022-10-10T06:05:44.245Z,80.26
2022-10-10T06:08:12.837Z,79.76
2022-10-10T06:10:45.828Z,79.80
2022-10-10T06:13:21.634Z,79.98
2022-10-10T06:15:53.301Z,80.01
2022-10-10T06:18:21.575Z,80.22
2022-10-10T06:20:49.778Z,80.45
2022-10-10T06:23:18.237Z,80.63
2022-10-10T06:25:48.278Z,80.16
2022-10-10T06:28:16.545Z,79.81
2022-10-10T06:30:48.421Z,79.48
2022-10-10T06:33:18.990Z,78.99
2022-10-10T06:35:49.493Z,78.52
2022-10-10T06:38:18.250Z,78.23
2022-10-10T06:40:48.289Z,77.58
2022-10-10T06:43:18.033Z,77.51
2022-10-10T06:45:48.411Z,77.67
2022-10-10T06:48:16.952Z,77.80
2022-10-10T06:50:45.155Z,77.98
2022-10-10T06:53:13.408Z,77.73
2022-10-10T06:55:48.485Z,77.40
2022-10-10T06:58:16.702Z,76.40
2022-10-10T07:00:51.440Z,76.34
2022-10-10T07:03:20.574Z,76.47
2022-10-10T07:05:52.141Z,76.05
2022-10-10T07:08:20.719Z,76.07
2022-10-10T07:10:50.593Z,75.90
2022-10-10T07:13:19.478Z,76.29
2022-10-10T07:15:48.169Z,76.15
2022-10-10T07:18:18.290Z,76.11
2022-10-10T07:20:46.858Z,76.71
2022-10-10T07:23:15.759Z,77.23
2022-10-10T07:25:44.540Z,77.39
2022-10-10T07:28:14.208Z,76.95
2022-10-10T07:30:43.904Z,76.61
2022-10-10T07:33:12.735Z,74.86
2022-10-10T07:35:40.995Z,74.16
2022-10-10T07:38:09.332Z,72.71
2022-10-10T07:40:40.644Z,71.65
2022-10-10T07:43:08.885Z,70.17
2022-10-10T07:45:38.612Z,69.39
2022-10-10T07:48:06.944Z,69.26
2022-10-10T07:50:35.305Z,69.31
2022-10-10T07:53:03.585Z,69.72
2022-10-10T07:55:31.779Z,70.11
2022-10-10T07:58:02.939Z,70.58
2022-10-10T08:00:31.393Z,70.72
2022-10-10T08:03:00.967Z,70.98
2022-10-10T08:05:29.274Z,71.21
2022-10-10T08:07:57.544Z,71.47
2022-10-10T08:10:25.863Z,71.85
2022-10-10T08:12:54.075Z,72.00
2022-10-10T08:15:22.341Z,72.20
2022-10-10T08:17:50.791Z,72.52
2022-10-10T08:20:20.453Z,72.62
2022-10-10T08:22:48.830Z,72.98
2022-10-10T08:25:17.474Z,73.17
2022-10-10T08:27:45.735Z,73.55
2022-10-10T08:30:14.808Z,73.50
2022-10-10T08:32:43.187Z,73.82
2022-10-10T08:35:11.425Z,74.00
2022-10-10T08:37:41.000Z,73.96
2022-10-10T08:40:12.174Z,74.09
2022-10-10T08:42:51.733Z,74.46
2022-10-10T08:45:25.028Z,74.68
2022-10-10T08:48:00.099Z,74.95
2022-10-10T08:50:32.763Z,74.94
2022-10-10T08:53:07.579Z,75.20
2022-10-10T08:55:39.422Z,75.19
2022-10-10T08:58:19.878Z,75.54
2022-10-10T09:00:51.729Z,75.68
2022-10-10T09:03:27.317Z,75.75
2022-10-10T09:06:20.724Z,76.27
2022-10-10T09:09:01.836Z,76.20
2022-10-10T09:11:48.613Z,75.86
2022-10-10T09:14:30.705Z,75.70
2022-10-10T09:17:04.711Z,75.69
2022-10-10T09:19:51.556Z,75.53
2022-10-10T09:22:27.750Z,74.82
2022-10-10T09:25:04.576Z,73.63
2022-10-10T09:27:38.558Z,73.10
2022-10-10T09:30:15.235Z,73.37
2022-10-10T09:32:49.626Z,73.75
2022-10-10T09:35:22.817Z,74.15
2022-10-10T09:37:54.887Z,73.95
2022-10-10T09:40:30.033Z,74.17
2022-10-10T09:42:58.582Z,74.47
2022-10-10T09:45:34.086Z,74.66
2022-10-10T09:48:02.328Z,74.51
2022-10-10T09:50:30.532Z,74.70
2022-10-10T09:52:59.510Z,74.88
2022-10-10T09:55:34.570Z,75.32
2022-10-10T09:58:13.392Z,75.50
2022-10-10T10:00:41.767Z,75.41
2022-10-10T10:03:16.481Z,75.54
2022-10-10T10:05:54.946Z,75.68
2022-10-10T10:08:29.927Z,75.38
2022-10-10T10:11:00.827Z,75.68
2022-10-10T10:13:33.124Z,75.55
2022-10-10T10:16:07.019Z,75.72
2022-10-10T10:18:42.479Z,75.94
2022-10-10T10:21:19.605Z,76.08
2022-10-10T10:24:00.675Z,76.24
2022-10-10T10:26:44.908Z,76.29
2022-10-10T10:29:30.373Z,76.58
2022-10-10T10:32:07.475Z,76.89
2022-10-10T10:35:11.059Z,77.15
2022-10-10T10:37:58.311Z,77.50
2022-10-10T10:40:35.484Z,78.00
2022-10-10T10:43:31.693Z,78.18
2022-10-10T10:46:11.003Z,78.41
2022-10-10T10:48:46.019Z,78.65
2022-10-10T10:51:41.103Z,78.74
2022-10-10T10:54:30.346Z,78.91
2022-10-10T10:57:11.200Z,78.90
2022-10-10T11:00:21.726Z,78.79
2022-10-10T11:03:27.963Z,78.63
2022-10-10T11:06:07.557Z,78.62
2022-10-10T11:08:53.327Z,78.76
2022-10-10T11:11:35.988Z,79.59
2022-10-10T11:14:16.748Z,79.54
2022-10-10T11:16:49.335Z,80.73
2022-10-10T11:19:27.654Z,81.21
2022-10-10T11:22:03.169Z,82.27
2022-10-10T11:24:42.067Z,83.27
2022-10-10T11:27:17.124Z,83.16
2022-10-10T11:30:00.193Z,84.19
2022-10-10T11:32:37.780Z,84.50
2022-10-10T11:35:28.711Z,85.87
2022-10-10T11:38:06.186Z,86.66
2022-10-10T11:40:44.391Z,87.45
2022-10-10T11:43:22.392Z,88.47
2022-10-10T11:46:02.680Z,89.68
2022-10-10T11:48:40.482Z,90.30
2022-10-10T11:51:21.081Z,90.11
2022-10-10T11:53:51.864Z,90.30
2022-10-10T11:56:27.905Z,90.99
2022-10-10T11:59:03.344Z,90.73
2022-10-10T12:01:36.816Z,90.91
2022-10-10T12:04:09.558Z,90.84
2022-10-10T12:06:43.339Z,90.87
2022-10-10T12:09:17.791Z,91.23
2022-10-10T12:11:51.554Z,91.49
2022-10-10T12:14:22.259Z,91.55
2022-10-10T12:16:50.519Z,91.46
2022-10-10T12:19:22.823Z,91.32
2022-10-10T12:21:59.850Z,91.30
2022-10-10T12:24:31.017Z,91.60
2022-10-10T12:28:06.753Z,91.28
2022-10-10T12:30:35.146Z,90.86
2022-10-10T12:33:03.377Z,91.11
2022-10-10T12:35:40.124Z,91.26
2022-10-10T12:38:19.199Z,92.24
2022-10-10T12:41:14.804Z,93.45
2022-10-10T12:43:52.248Z,93.93
2022-10-10T12:46:32.116Z,93.94
2022-10-10T12:49:19.121Z,94.20
2022-10-10T12:52:02.030Z,93.93
2022-10-10T12:54:35.419Z,94.61
2022-10-10T12:57:17.764Z,96.34
2022-10-10T12:59:46.468Z,96.10
2022-10-10T13:02:22.590Z,95.97
2022-10-10T13:04:54.156Z,95.97
2022-10-10T13:07:24.758Z,96.74
2022-10-10T13:09:55.620Z,97.13
2022-10-10T13:12:28.155Z,97.63
2022-10-10T13:14:57.838Z,97.81
2022-10-10T13:17:29.866Z,97.40
2022-10-10T13:20:00.891Z,98.13
2022-10-10T13:22:33.715Z,98.33
2022-10-10T13:25:05.262Z,97.40
2022-10-10T13:27:36.013Z,98.42
2022-10-10T13:30:06.649Z,97.78
2022-10-10T13:32:37.369Z,98.06
2022-10-10T13:35:07.275Z,96.41
2022-10-10T13:37:37.291Z,95.36
2022-10-10T13:40:06.806Z,94.43
2022-10-10T13:42:38.672Z,94.39
2022-10-10T13:45:33.815Z,93.27
2022-10-10T13:48:21.325Z,92.06
2022-10-10T13:51:03.501Z,90.32
2022-10-10T13:53:47.327Z,88.00
2022-10-10T13:56:21.195Z,86.40
2022-10-10T13:58:52.575Z,85.76
2022-10-10T14:01:29.960Z,83.92
2022-10-10T14:04:16.533Z,83.08
2022-10-10T14:07:00.370Z,81.38
2022-10-10T14:09:34.208Z,80.69
2022-10-10T14:12:05.189Z,79.31
2022-10-10T14:14:44.648Z,77.76
2022-10-10T14:17:13.808Z,75.88
2022-10-10T14:19:43.170Z,75.26
2022-10-10T14:22:11.478Z,74.71
2022-10-10T14:24:41.099Z,72.90
2022-10-10T14:27:17.040Z,71.75
2022-10-10T14:29:45.570Z,70.41
2022-10-10T14:32:15.751Z,69.48
2022-10-10T14:34:44.404Z,68.55
2022-10-10T14:37:19.600Z,68.25
2022-10-10T14:39:49.610Z,67.17
2022-10-10T14:42:19.626Z,65.69
2022-10-10T14:44:48.041Z,65.14
2022-10-10T14:47:18.816Z,64.84
2022-10-10T14:49:47.150Z,65.49
2022-10-10T14:52:16.180Z,65.14
2022-10-10T14:54:44.874Z,64.91
2022-10-10T14:57:15.632Z,64.67
2022-10-10T14:59:47.407Z,64.81
2022-10-10T15:02:20.203Z,65.18
2022-10-10T15:04:48.463Z,65.58
2022-10-10T15:07:17.890Z,66.28
2022-10-10T15:12:39.522Z,65.50
2022-10-10T15:15:10.112Z,65.18
2022-10-10T15:17:38.398Z,65.33
2022-10-10T15:20:11.202Z,65.64
2022-10-10T15:22:40.114Z,65.77
2022-10-10T15:25:10.319Z,66.37
2022-10-10T15:27:40.265Z,65.82
2022-10-10T15:30:11.263Z,65.14
2022-10-10T15:32:40.672Z,64.11
2022-10-10T15:35:13.502Z,64.18
2022-10-10T15:37:41.836Z,64.12
2022-10-10T15:40:11.673Z,64.12
2022-10-10T15:42:41.350Z,63.95
2022-10-10T15:45:11.163Z,64.37
2022-10-10T15:47:45.495Z,63.64
2022-10-10T15:50:15.279Z,63.54
2022-10-10T15:52:43.520Z,63.73
2022-10-10T15:55:12.019Z,63.16
2022-10-10T15:57:43.193Z,62.63
2022-10-10T16:00:13.004Z,62.53
2022-10-10T16:02:41.270Z,62.66
2022-10-10T16:05:10.702Z,62.13
2022-10-10T16:07:47.566Z,62.33
2022-10-10T16:10:17.085Z,62.71
2022-10-10T16:12:46.672Z,63.22
2022-10-10T16:15:15.079Z,62.52
2022-10-10T16:17:43.391Z,62.20
2022-10-10T16:20:13.024Z,61.58
2022-10-10T16:22:41.253Z,61.59
2022-10-10T16:25:21.850Z,61.74
2022-10-10T16:27:52.643Z,62.64
2022-10-10T16:30:21.456Z,62.33
2022-10-10T16:32:50.258Z,61.69
2022-10-10T16:35:18.684Z,61.54
2022-10-10T16:37:47.061Z,61.25
2022-10-10T16:40:15.474Z,62.90
2022-10-10T16:42:43.690Z,62.36
2022-10-10T16:45:13.727Z,61.96
2022-10-10T16:47:42.012Z,62.40
2022-10-10T16:50:11.295Z,61.94
2022-10-10T16:52:40.376Z,62.88
2022-10-10T16:55:11.209Z,62.95
2022-10-10T16:57:40.452Z,62.69
2022-10-10T17:00:13.343Z,62.42
2022-10-10T17:02:42.355Z,61.91
2022-10-10T17:05:11.003Z,62.39
2022-10-10T17:07:39.230Z,62.29
2022-10-10T17:10:08.877Z,62.37
2022-10-10T17:12:37.153Z,62.65
2022-10-10T17:15:06.754Z,62.94
2022-10-10T17:17:37.993Z,63.38
2022-10-10T17:20:08.072Z,63.35
2022-10-10T17:22:37.351Z,63.21
2022-10-10T17:25:06.955Z,62.83
2022-10-10T17:27:35.929Z,62.49
2022-10-10T17:30:05.478Z,62.48
2022-10-10T17:32:33.699Z,62.79
2022-10-10T17:35:03.455Z,63.06
2022-10-10T17:37:32.394Z,63.16
2022-10-10T17:40:00.662Z,63.06
2022-10-10T17:42:28.970Z,63.26
2022-10-10T17:44:59.525Z,63.36
2022-10-10T17:47:28.561Z,63.50
2022-10-10T17:49:56.797Z,63.35
2022-10-10T17:52:26.716Z,63.65
2022-10-10T17:54:54.972Z,63.47
2022-10-10T17:57:23.178Z,63.72
2022-10-10T17:59:51.622Z,63.55
2022-10-10T18:02:20.521Z,64.10
2022-10-10T18:04:48.811Z,64.24
2022-10-10T18:07:19.190Z,63.99
2022-10-10T18:09:52.130Z,64.01
2022-10-10T18:12:20.701Z,64.36
2022-10-10T18:14:48.966Z,64.31
2022-10-10T18:17:17.225Z,64.49
2022-10-10T18:19:45.650Z,64.57
2022-10-10T18:22:13.985Z,64.42
2022-10-10T18:24:42.199Z,63.97
2022-10-10T18:27:11.839Z,63.96
2022-10-10T18:29:40.056Z,63.69
2022-10-10T18:32:09.000Z,63.75
2022-10-10T18:34:37.614Z,63.87
2022-10-10T18:37:06.554Z,63.58
2022-10-10T18:39:35.982Z,63.37
2022-10-10T18:42:04.625Z,63.38
2022-10-10T18:44:34.415Z,63.38
2022-10-10T18:47:02.702Z,63.26
2022-10-10T18:49:31.125Z,63.23
2022-10-10T18:51:59.365Z,63.51
2022-10-10T18:54:30.121Z,63.32
2022-10-10T18:56:58.212Z,63.05
2022-10-10T18:59:26.534Z,63.13
2022-10-10T19:01:56.377Z,63.27
2022-10-10T19:04:25.201Z,63.50
2022-10-10T19:06:57.363Z,63.64
2022-10-10T19:09:26.786Z,63.56
2022-10-10T19:11:55.603Z,63.51
2022-10-10T19:14:24.038Z,63.70
2022-10-10T19:16:52.270Z,63.72
2022-10-10T19:19:22.075Z,63.82
2022-10-10T19:21:52.439Z,63.89
2022-10-10T19:24:22.361Z,64.02
2022-10-10T19:26:54.706Z,64.24
2022-10-10T19:29:23.805Z,64.59
2022-10-10T19:31:52.064Z,64.89
2022-10-10T19:34:21.884Z,64.90
2022-10-10T19:36:50.113Z,64.65
2022-10-10T19:39:18.879Z,64.71
2022-10-10T19:41:47.206Z,64.48
2022-10-10T19:44:15.441Z,64.56
2022-10-10T19:46:43.701Z,64.23
2022-10-10T19:49:12.303Z,64.82
2022-10-10T19:51:41.945Z,65.61
2022-10-10T19:54:10.446Z,65.70
2022-10-10T19:56:38.872Z,66.13
2022-10-10T19:59:07.217Z,66.09
2022-10-10T20:01:35.548Z,65.39
2022-10-10T20:04:04.045Z,65.01
2022-10-10T20:06:32.322Z,64.21
2022-10-10T20:09:02.047Z,64.27
2022-10-10T20:11:31.184Z,64.12
2022-10-10T20:13:59.537Z,63.87
2022-10-10T20:16:28.433Z,63.36
2022-10-10T20:18:58.799Z,62.96
2022-10-10T20:21:31.641Z,62.59
2022-10-10T20:24:03.867Z,62.36
2022-10-10T20:26:32.094Z,62.25
2022-10-10T20:29:00.953Z,62.22
2022-10-10T20:31:32.782Z,62.25
2022-10-10T20:34:02.505Z,62.21
2022-10-10T20:36:33.089Z,62.00
2022-10-10T20:39:06.245Z,61.92
2022-10-10T20:41:37.444Z,61.97
2022-10-10T20:44:07.834Z,61.91
2022-10-10T20:46:38.168Z,61.59
2022-10-10T20:49:11.333Z,61.84
2022-10-10T20:51:39.751Z,61.39
2022-10-10T20:54:11.799Z,61.47
2022-10-10T20:56:40.726Z,61.95
2022-10-10T20:59:10.654Z,62.41
2022-10-10T21:01:40.373Z,62.19
2022-10-10T21:04:11.441Z,62.67
2022-10-10T21:06:42.580Z,62.64
2022-10-10T21:09:14.826Z,63.29
2022-10-10T21:11:46.408Z,64.09
2022-10-10T21:14:17.058Z,64.00
2022-10-10T21:16:45.674Z,64.23
2022-10-10T21:19:15.152Z,65.28
2022-10-10T21:21:43.735Z,65.93
2022-10-10T21:24:13.961Z,67.22
2022-10-10T21:26:43.082Z,67.37
2022-10-10T21:29:11.300Z,67.72
2022-10-10T21:31:41.490Z,66.97
2022-10-10T21:34:15.656Z,67.46
2022-10-10T21:36:44.382Z,66.83
2022-10-10T21:39:15.316Z,66.91
2022-10-10T21:41:43.770Z,67.60
2022-10-10T21:44:12.353Z,67.31
2022-10-10T21:46:40.598Z,67.27
2022-10-10T21:49:12.300Z,67.18
2022-10-10T21:51:42.929Z,67.20
2022-10-10T21:54:13.016Z,67.49
2022-10-10T21:56:41.643Z,67.49
2022-10-10T21:59:10.486Z,67.32
2022-10-10T22:01:38.847Z,67.77
2022-10-10T22:04:07.550Z,68.65
2022-10-10T22:06:35.849Z,68.07
2022-10-10T22:09:04.997Z,68.05
2022-10-10T22:11:35.574Z,68.12
2022-10-10T22:14:05.578Z,68.61
2022-10-10T22:16:34.599Z,69.00
2022-10-10T22:19:03.655Z,69.17
2022-10-10T22:21:35.099Z,69.25
2022-10-10T22:24:07.527Z,69.49
2022-10-10T22:26:38.469Z,69.14
2022-10-10T22:29:06.858Z,69.12
2022-10-10T22:31:37.750Z,69.60
2022-10-10T22:34:07.076Z,69.76
2022-10-10T22:36:35.726Z,70.01
2022-10-10T22:39:04.967Z,70.57
2022-10-10T22:41:33.305Z,71.50
2022-10-10T22:44:03.169Z,71.94
2022-10-10T22:46:31.698Z,72.48
2022-10-10T22:49:00.079Z,72.28
2022-10-10T22:51:28.354Z,71.85
2022-10-10T22:53:56.570Z,71.92
2022-10-10T22:56:24.919Z,71.63
2022-10-10T22:58:53.182Z,71.64
2022-10-10T23:01:26.650Z,71.54
2022-10-10T23:03:56.841Z,71.63
2022-10-10T23:06:25.232Z,71.73
2022-10-10T23:08:53.981Z,72.13
2022-10-10T23:11:22.226Z,72.39
2022-10-10T23:13:50.387Z,72.54
2022-10-10T23:16:18.659Z,72.42
2022-10-10T23:18:48.245Z,72.55
2022-10-10T23:21:16.721Z,72.88
2022-10-10T23:23:44.906Z,72.89
2022-10-10T23:26:14.269Z,73.41
2022-10-10T23:28:44.761Z,73.71
2022-10-10T23:31:14.311Z,73.79
2022-10-10T23:33:43.779Z,74.09
2022-10-10T23:36:15.652Z,73.87
2022-10-10T23:38:44.751Z,73.71
2022-10-10T23:41:15.226Z,73.93
2022-10-10T23:43:43.472Z,74.42
2022-10-10T23:46:12.168Z,74.81
2022-10-10T23:48:40.505Z,75.18
2022-10-10T23:51:09.024Z,75.41
2022-10-10T23:53:38.669Z,75.59
2022-10-10T23:56:07.904Z,75.28
2022-10-10T23:58:36.635Z,75.30
